Chris Hadfield Airport
CYZR : now visible

Airfield :











YOU CAN JOIN US ON...

 
LOGIN :

Register | Disclaimer

   EN    FR    IT 

 









Legend :    VFR   Marginal VFR   IFR   Intensive IFR   Very Intensive IFR
Visi :
Ceiling :
>= 8 km
>= 3000ft
5 to 8 km
1000 to 3000 ft
1500m to 5 km
500 to 1000 ft
800 to 1500m
200 to 500 ft
< 800m
< 200 ft
Symbols :   Thunderstorms  Fog  Heavy snow  Heavy precipitations  Wind > 20 kt






- Airport Elevation : 594 ft
- IATA code : YZR


CYZR - Chris Hadfield

CURRENT METAR :
  • 190800Z AUTO 25012G17KT 9SM OVC018 M01/M04 A2995 RMK SLP152

EXPIRED METARs :
  • 190742Z AUTO 25010KT 9SM BKN018 OVC044 M01/M04 A2994 RMK SLP152
  • 190730Z AUTO 25010KT 9SM -SN SCT018 OVC044 M01/M04 A2994 RMK SLP150
  • 190700Z AUTO 25009G15KT 9SM -SN FEW015 OVC044 M01/M04 A2994 RMK SLP149
  • 190632Z AUTO 25009G15KT 7SM -SN FEW019 BKN033 OVC046 M01/M03 A2994 RMK SLP146
  • 190610Z AUTO 25008G15KT 5SM -SN FEW016 SCT025 BKN031 OVC055 M01/M03 A2994 RMK SLP146
  • 190558Z AUTO 24011G16KT 9SM -SN SCT016 SCT021 BKN033 OVC055 M01/M03 A2993 RMK SLP145
  • 190539Z AUTO 25008KT 9SM -SN SCT016 BKN021 BKN029 OVC055 M01/M03 A2993 RMK SLP145

Expired Forecast.
CZYZ FIR / North America



MET'MAP, your aeronautical weather chart ! - Copyright ORBIFLY December 2007 - Disclaimer

ORBIFLY MET'MAP TEAM :

Programming & Development : Alexandra Zaïnal
Concept & original design : Baudouin d'Aumeries
Assistance for programming : Marc-Olivier Méhu
Technical & hardware support : Manuel Goepfert

Contact : metmap@orbifly.com




SOURCES & CREDITS :

   NOAA       Earth
Advisory